createdAt,value
2023-05-08T00:00:43.585Z,7.93
2023-05-08T00:07:25.866Z,7.93
2023-05-08T00:14:08.317Z,8.25
2023-05-08T00:20:50.630Z,8.00
2023-05-08T00:27:34.021Z,8.52
2023-05-08T00:34:16.344Z,7.90
2023-05-08T00:40:59.036Z,11.27
2023-05-08T00:47:42.152Z,10.18
2023-05-08T00:54:26.319Z,8.82
2023-05-08T01:01:09.197Z,8.77
2023-05-08T01:07:51.556Z,8.32
2023-05-08T01:14:51.282Z,7.30
2023-05-08T01:21:45.711Z,9.25
2023-05-08T01:28:43.230Z,7.18
2023-05-08T01:35:39.762Z,7.63
2023-05-08T01:42:42.876Z,8.07
2023-05-08T01:49:34.415Z,8.27
2023-05-08T01:56:22.149Z,8.50
2023-05-08T02:03:07.592Z,8.55
2023-05-08T02:09:51.449Z,8.68
2023-05-08T02:16:34.745Z,9.65
2023-05-08T02:23:19.152Z,9.40
2023-05-08T02:30:01.899Z,9.75
2023-05-08T02:36:45.438Z,10.70
2023-05-08T02:43:28.712Z,11.18
2023-05-08T02:50:19.470Z,11.13
2023-05-08T02:57:10.544Z,10.85
2023-05-08T03:04:04.309Z,10.15
2023-05-08T03:10:51.270Z,9.98
2023-05-08T03:17:35.446Z,9.90
2023-05-08T03:24:19.731Z,9.77
2023-05-08T03:31:04.966Z,9.63
2023-05-08T03:37:47.722Z,9.70
2023-05-08T03:44:31.979Z,10.18
2023-05-08T03:51:16.928Z,10.15
2023-05-08T03:58:48.595Z,9.73
2023-05-08T04:06:08.397Z,9.90
2023-05-08T04:13:10.957Z,9.57
2023-05-08T04:20:02.484Z,9.88
2023-05-08T04:26:45.909Z,10.80
2023-05-08T04:33:29.613Z,10.00
2023-05-08T04:40:12.581Z,10.38
2023-05-08T04:46:56.532Z,11.13
2023-05-08T04:53:39.032Z,10.68
2023-05-08T05:00:21.663Z,9.68
2023-05-08T05:07:04.971Z,9.98
2023-05-08T05:13:47.743Z,9.73
2023-05-08T05:20:30.169Z,10.15
2023-05-08T05:27:12.882Z,10.30
2023-05-08T05:33:56.330Z,11.07
2023-05-08T05:40:39.004Z,10.45
2023-05-08T05:47:21.566Z,10.35
2023-05-08T05:54:04.528Z,8.60
2023-05-08T06:00:47.642Z,9.63
2023-05-08T06:07:30.538Z,11.25
2023-05-08T06:14:12.916Z,9.80
2023-05-08T06:20:58.894Z,10.70
2023-05-08T06:27:41.380Z,10.50
2023-05-08T06:34:24.919Z,10.50
2023-05-08T06:41:07.361Z,10.50
2023-05-08T06:47:49.747Z,9.27
2023-05-08T06:54:32.194Z,9.45
2023-05-08T07:01:15.268Z,8.50
2023-05-08T07:07:57.629Z,8.50
2023-05-08T07:14:40.276Z,8.90
2023-05-08T07:21:22.560Z,8.57
2023-05-08T07:28:05.408Z,8.82
2023-05-08T07:34:47.738Z,7.63
2023-05-08T07:41:30.673Z,8.10
2023-05-08T07:48:13.232Z,7.00
2023-05-08T07:54:55.698Z,6.55
2023-05-08T08:01:38.112Z,6.75
2023-05-08T08:08:20.732Z,5.57
2023-05-08T08:15:03.403Z,5.90
2023-05-08T08:21:46.713Z,5.97
2023-05-08T08:28:29.091Z,5.80
2023-05-08T08:35:12.009Z,5.32
2023-05-08T08:41:54.948Z,5.75
2023-05-08T08:48:38.326Z,6.00
2023-05-08T08:55:23.186Z,5.93
2023-05-08T09:02:17.996Z,6.80
2023-05-08T09:09:02.088Z,8.30
2023-05-08T09:15:44.526Z,7.45
2023-05-08T09:22:27.353Z,9.07
2023-05-08T09:29:10.522Z,8.48
2023-05-08T09:35:53.610Z,8.35
2023-05-08T09:42:39.146Z,7.35
2023-05-08T09:49:21.785Z,7.47
2023-05-08T09:56:05.250Z,8.23
2023-05-08T10:02:59.849Z,8.90
2023-05-08T10:09:58.669Z,9.07
2023-05-08T10:16:44.157Z,9.55
2023-05-08T10:23:26.866Z,8.50
2023-05-08T10:30:12.192Z,9.57
2023-05-08T10:36:54.916Z,10.10
2023-05-08T10:43:42.482Z,8.90
2023-05-08T10:50:25.042Z,9.05
2023-05-08T10:57:11.448Z,9.75
2023-05-08T11:03:55.866Z,9.63
2023-05-08T11:10:40.840Z,10.40
2023-05-08T11:17:24.981Z,10.13
2023-05-08T11:24:11.461Z,9.98
2023-05-08T11:30:56.359Z,9.10
2023-05-08T11:37:38.890Z,9.70
2023-05-08T11:44:23.496Z,8.55
2023-05-08T11:51:06.481Z,7.93
2023-05-08T11:57:48.782Z,8.60
2023-05-08T12:04:31.362Z,7.75
2023-05-08T12:11:23.941Z,9.00
2023-05-08T12:18:06.287Z,6.95
2023-05-08T12:24:48.757Z,7.65
2023-05-08T12:31:31.166Z,7.63
2023-05-08T12:38:13.809Z,6.95
2023-05-08T12:44:57.949Z,7.53
2023-05-08T12:51:46.111Z,7.18
2023-05-08T12:58:34.278Z,7.80
2023-05-08T13:05:20.034Z,8.70
2023-05-08T13:12:02.482Z,9.50
2023-05-08T13:18:44.931Z,8.25
2023-05-08T13:25:27.296Z,8.55
2023-05-08T13:32:09.957Z,9.43
2023-05-08T13:38:54.932Z,9.07
2023-05-08T13:45:37.372Z,10.02
2023-05-08T13:52:19.711Z,8.52
2023-05-08T13:59:01.994Z,9.95
2023-05-08T14:05:44.672Z,9.45
2023-05-08T14:12:27.193Z,9.30
2023-05-08T14:19:09.567Z,9.88
2023-05-08T14:25:51.862Z,11.35
2023-05-08T14:32:34.248Z,12.05
2023-05-08T14:39:16.652Z,14.30
2023-05-08T14:45:59.147Z,14.90
2023-05-08T14:52:41.514Z,15.63
2023-05-08T14:59:23.840Z,16.88
2023-05-08T15:06:07.201Z,17.33
2023-05-08T15:12:49.928Z,17.17
2023-05-08T15:19:32.358Z,17.33
2023-05-08T15:26:14.632Z,14.82
2023-05-08T15:32:57.049Z,13.65
2023-05-08T15:39:40.767Z,13.90
2023-05-08T15:46:23.349Z,12.13
2023-05-08T15:53:05.759Z,11.95
2023-05-08T15:59:48.065Z,11.60
2023-05-08T16:06:30.746Z,11.65
2023-05-08T16:13:13.151Z,11.90
2023-05-08T16:19:55.545Z,13.00
2023-05-08T16:26:37.863Z,12.70
2023-05-08T16:33:20.170Z,12.65
2023-05-08T16:40:02.620Z,12.75
2023-05-08T16:46:45.330Z,12.57
2023-05-08T16:53:27.879Z,12.52
2023-05-08T17:00:10.822Z,13.57
2023-05-08T17:06:53.108Z,13.90
2023-05-08T17:13:35.484Z,14.68
2023-05-08T17:20:17.960Z,15.00
2023-05-08T17:27:00.489Z,15.52
2023-05-08T17:33:42.857Z,16.27
2023-05-08T17:40:26.018Z,15.75
2023-05-08T17:47:09.199Z,17.02
2023-05-08T17:53:53.005Z,12.95
2023-05-08T18:00:35.506Z,13.63
2023-05-08T18:07:17.890Z,13.35
2023-05-08T18:14:00.457Z,13.68
2023-05-08T18:20:42.774Z,12.60
2023-05-08T18:27:26.311Z,14.55
2023-05-08T18:34:08.673Z,13.90
2023-05-08T18:40:51.142Z,13.18
2023-05-08T18:47:33.477Z,14.50
2023-05-08T18:54:15.811Z,12.73
2023-05-08T19:00:58.908Z,12.32
2023-05-08T19:07:42.782Z,13.48
2023-05-08T19:14:25.691Z,14.02
2023-05-08T19:21:08.048Z,12.65
2023-05-08T19:27:50.446Z,13.02
2023-05-08T19:34:34.903Z,14.43
2023-05-08T19:41:17.875Z,14.60
2023-05-08T19:48:00.316Z,15.05
2023-05-08T19:54:45.162Z,15.25
2023-05-08T20:01:27.482Z,16.95
2023-05-08T20:08:10.370Z,16.58
2023-05-08T20:14:53.408Z,16.80
2023-05-08T20:21:36.372Z,16.63
2023-05-08T20:28:22.285Z,16.17
2023-05-08T20:35:04.924Z,17.02
2023-05-08T20:41:47.214Z,18.35
2023-05-08T20:48:29.575Z,18.52
2023-05-08T20:55:12.131Z,18.85
2023-05-08T21:01:54.789Z,17.95
2023-05-08T21:08:37.200Z,18.50
2023-05-08T21:15:19.721Z,18.67
2023-05-08T21:22:02.084Z,20.23
2023-05-08T21:28:44.373Z,20.42
2023-05-08T21:35:26.712Z,18.92
2023-05-08T21:42:09.030Z,19.70
2023-05-08T21:48:51.466Z,18.23
2023-05-08T21:55:33.817Z,20.95
2023-05-08T22:02:16.311Z,20.23
2023-05-08T22:08:59.063Z,19.25
2023-05-08T22:15:42.140Z,19.60
2023-05-08T22:22:24.452Z,21.08
2023-05-08T22:29:06.701Z,21.40
2023-05-08T22:35:49.096Z,20.63
2023-05-08T22:42:31.631Z,20.25
2023-05-08T22:49:14.108Z,21.05
2023-05-08T22:55:56.379Z,20.08
2023-05-08T23:02:39.272Z,21.17
2023-05-08T23:09:21.613Z,19.23
2023-05-08T23:16:04.245Z,18.67
2023-05-08T23:22:46.524Z,21.85
2023-05-08T23:29:29.010Z,20.20
2023-05-08T23:36:11.337Z,21.00
2023-05-08T23:42:53.596Z,22.23
2023-05-08T23:49:35.955Z,21.40
2023-05-08T23:56:18.500Z,20.25
